sensor_id;sensor_type;location;lat;lon;timestamp;temperature;humidity
11848;DHT22;5983;49.966;8.052;2023-06-26T00:02:14;19.50;99.90
11848;DHT22;5983;49.966;8.052;2023-06-26T00:04:42;19.60;99.90
11848;DHT22;5983;49.966;8.052;2023-06-26T00:07:10;19.60;99.90
11848;DHT22;5983;49.966;8.052;2023-06-26T00:09:37;19.60;99.90
11848;DHT22;5983;49.966;8.052;2023-06-26T00:12:04;19.60;99.90
11848;DHT22;5983;49.966;8.052;2023-06-26T00:14:33;19.50;99.90
11848;DHT22;5983;49.966;8.052;2023-06-26T00:17:00;19.60;99.90
11848;DHT22;5983;49.966;8.052;2023-06-26T00:19:28;19.50;99.90
11848;DHT22;5983;49.966;8.052;2023-06-26T00:21:54;19.50;99.90
11848;DHT22;5983;49.966;8.052;2023-06-26T00:24:21;19.40;99.90
11848;DHT22;5983;49.966;8.052;2023-06-26T00:26:48;19.40;99.90
11848;DHT22;5983;49.966;8.052;2023-06-26T00:29:15;19.30;99.90
11848;DHT22;5983;49.966;8.052;2023-06-26T00:31:44;19.20;99.90
11848;DHT22;5983;49.966;8.052;2023-06-26T00:34:10;19.20;99.90
11848;DHT22;5983;49.966;8.052;2023-06-26T00:36:37;19.20;99.90
11848;DHT22;5983;49.966;8.052;2023-06-26T00:39:04;19.10;99.90
11848;DHT22;5983;49.966;8.052;2023-06-26T00:41:31;19.10;99.90
11848;DHT22;5983;49.966;8.052;2023-06-26T00:43:57;19.10;99.90
11848;DHT22;5983;49.966;8.052;2023-06-26T00:46:24;19.00;99.90
11848;DHT22;5983;49.966;8.052;2023-06-26T00:48:53;19.00;99.90
11848;DHT22;5983;49.966;8.052;2023-06-26T00:51:21;19.00;99.90
11848;DHT22;5983;49.966;8.052;2023-06-26T00:53:48;19.00;99.90
11848;DHT22;5983;49.966;8.052;2023-06-26T00:56:17;18.90;99.90
11848;DHT22;5983;49.966;8.052;2023-06-26T00:58:45;18.90;99.90
11848;DHT22;5983;49.966;8.052;2023-06-26T01:01:12;18.80;99.90
11848;DHT22;5983;49.966;8.052;2023-06-26T01:03:43;18.70;99.90
11848;DHT22;5983;49.966;8.052;2023-06-26T01:06:14;18.70;99.90
11848;DHT22;5983;49.966;8.052;2023-06-26T01:08:43;18.70;99.90
11848;DHT22;5983;49.966;8.052;2023-06-26T01:11:11;18.80;99.90
11848;DHT22;5983;49.966;8.052;2023-06-26T01:13:40;18.70;99.90
11848;DHT22;5983;49.966;8.052;2023-06-26T01:16:09;18.70;99.90
11848;DHT22;5983;49.966;8.052;2023-06-26T01:18:38;18.70;99.90
11848;DHT22;5983;49.966;8.052;2023-06-26T01:21:08;18.60;99.90
11848;DHT22;5983;49.966;8.052;2023-06-26T01:23:42;18.70;99.90
11848;DHT22;5983;49.966;8.052;2023-06-26T01:26:19;18.70;99.90
11848;DHT22;5983;49.966;8.052;2023-06-26T01:28:49;18.60;99.90
11848;DHT22;5983;49.966;8.052;2023-06-26T01:31:19;18.50;99.90
11848;DHT22;5983;49.966;8.052;2023-06-26T01:33:46;18.50;99.90
11848;DHT22;5983;49.966;8.052;2023-06-26T01:36:13;18.40;99.90
11848;DHT22;5983;49.966;8.052;2023-06-26T01:38:40;18.20;99.90
11848;DHT22;5983;49.966;8.052;2023-06-26T01:41:07;18.10;99.90
11848;DHT22;5983;49.966;8.052;2023-06-26T01:43:41;18.20;99.90
11848;DHT22;5983;49.966;8.052;2023-06-26T01:46:23;18.20;99.90
11848;DHT22;5983;49.966;8.052;2023-06-26T01:51:42;18.20;99.90
11848;DHT22;5983;49.966;8.052;2023-06-26T01:54:18;18.20;99.90
11848;DHT22;5983;49.966;8.052;2023-06-26T01:56:50;18.20;99.90
11848;DHT22;5983;49.966;8.052;2023-06-26T01:59:22;18.10;99.90
11848;DHT22;5983;49.966;8.052;2023-06-26T02:01:52;18.10;99.90
11848;DHT22;5983;49.966;8.052;2023-06-26T02:04:19;18.00;99.90
11848;DHT22;5983;49.966;8.052;2023-06-26T02:06:46;17.90;99.90
11848;DHT22;5983;49.966;8.052;2023-06-26T02:09:13;17.90;99.90
11848;DHT22;5983;49.966;8.052;2023-06-26T02:11:40;17.80;99.90
11848;DHT22;5983;49.966;8.052;2023-06-26T02:14:07;17.90;99.90
11848;DHT22;5983;49.966;8.052;2023-06-26T02:16:35;17.80;99.90
11848;DHT22;5983;49.966;8.052;2023-06-26T02:19:02;17.80;99.90
11848;DHT22;5983;49.966;8.052;2023-06-26T02:21:29;17.70;99.90
11848;DHT22;5983;49.966;8.052;2023-06-26T02:23:56;17.70;99.90
11848;DHT22;5983;49.966;8.052;2023-06-26T02:26:23;17.70;99.90
11848;DHT22;5983;49.966;8.052;2023-06-26T02:28:50;17.70;99.90
11848;DHT22;5983;49.966;8.052;2023-06-26T02:31:16;17.70;99.90
11848;DHT22;5983;49.966;8.052;2023-06-26T02:33:45;17.70;99.90
11848;DHT22;5983;49.966;8.052;2023-06-26T02:36:11;17.70;99.90
11848;DHT22;5983;49.966;8.052;2023-06-26T02:38:38;17.70;99.90
11848;DHT22;5983;49.966;8.052;2023-06-26T02:41:05;17.70;99.90
11848;DHT22;5983;49.966;8.052;2023-06-26T02:43:32;17.60;99.90
11848;DHT22;5983;49.966;8.052;2023-06-26T02:45:59;17.60;99.90
11848;DHT22;5983;49.966;8.052;2023-06-26T02:48:25;17.50;99.90
11848;DHT22;5983;49.966;8.052;2023-06-26T02:50:53;17.40;99.90
11848;DHT22;5983;49.966;8.052;2023-06-26T02:53:20;17.30;99.90
11848;DHT22;5983;49.966;8.052;2023-06-26T02:55:47;17.30;99.90
11848;DHT22;5983;49.966;8.052;2023-06-26T02:58:14;17.30;99.90
11848;DHT22;5983;49.966;8.052;2023-06-26T03:00:41;17.20;99.90
11848;DHT22;5983;49.966;8.052;2023-06-26T03:03:08;17.20;99.90
11848;DHT22;5983;49.966;8.052;2023-06-26T03:05:35;17.20;99.90
11848;DHT22;5983;49.966;8.052;2023-06-26T03:08:04;17.20;99.90
11848;DHT22;5983;49.966;8.052;2023-06-26T03:10:31;17.20;99.90
11848;DHT22;5983;49.966;8.052;2023-06-26T03:12:57;17.20;99.90
11848;DHT22;5983;49.966;8.052;2023-06-26T03:15:25;17.10;99.90
11848;DHT22;5983;49.966;8.052;2023-06-26T03:17:52;17.10;99.90
11848;DHT22;5983;49.966;8.052;2023-06-26T03:20:18;17.00;99.90
11848;DHT22;5983;49.966;8.052;2023-06-26T03:22:45;16.90;99.90
11848;DHT22;5983;49.966;8.052;2023-06-26T03:25:13;16.80;99.90
11848;DHT22;5983;49.966;8.052;2023-06-26T03:27:40;16.70;99.90
11848;DHT22;5983;49.966;8.052;2023-06-26T03:30:08;16.80;99.90
11848;DHT22;5983;49.966;8.052;2023-06-26T03:32:36;16.80;99.90
11848;DHT22;5983;49.966;8.052;2023-06-26T03:35:03;16.80;99.90
11848;DHT22;5983;49.966;8.052;2023-06-26T03:37:30;16.80;99.90
11848;DHT22;5983;49.966;8.052;2023-06-26T03:39:57;16.80;99.90
11848;DHT22;5983;49.966;8.052;2023-06-26T03:42:25;16.90;99.90
11848;DHT22;5983;49.966;8.052;2023-06-26T03:44:52;17.00;99.90
11848;DHT22;5983;49.966;8.052;2023-06-26T03:47:19;17.00;99.90
11848;DHT22;5983;49.966;8.052;2023-06-26T03:49:45;17.00;99.90
11848;DHT22;5983;49.966;8.052;2023-06-26T03:52:12;17.00;99.90
11848;DHT22;5983;49.966;8.052;2023-06-26T03:54:39;17.00;99.90
11848;DHT22;5983;49.966;8.052;2023-06-26T03:57:07;17.00;99.90
11848;DHT22;5983;49.966;8.052;2023-06-26T03:59:36;17.00;99.90
11848;DHT22;5983;49.966;8.052;2023-06-26T04:02:03;17.00;99.90
11848;DHT22;5983;49.966;8.052;2023-06-26T04:04:30;17.00;99.90
11848;DHT22;5983;49.966;8.052;2023-06-26T04:06:57;17.10;99.90
11848;DHT22;5983;49.966;8.052;2023-06-26T04:09:24;17.20;99.90
11848;DHT22;5983;49.966;8.052;2023-06-26T04:11:51;17.30;99.90
11848;DHT22;5983;49.966;8.052;2023-06-26T04:14:18;17.30;99.90
11848;DHT22;5983;49.966;8.052;2023-06-26T04:16:46;17.40;99.90
11848;DHT22;5983;49.966;8.052;2023-06-26T04:19:13;17.40;99.90
11848;DHT22;5983;49.966;8.052;2023-06-26T04:21:40;17.60;99.90
11848;DHT22;5983;49.966;8.052;2023-06-26T04:24:07;17.60;99.90
11848;DHT22;5983;49.966;8.052;2023-06-26T04:26:34;17.70;99.90
11848;DHT22;5983;49.966;8.052;2023-06-26T04:29:01;17.80;99.90
11848;DHT22;5983;49.966;8.052;2023-06-26T04:31:28;17.90;99.90
11848;DHT22;5983;49.966;8.052;2023-06-26T04:33:57;17.90;99.90
11848;DHT22;5983;49.966;8.052;2023-06-26T04:36:25;18.00;99.90
11848;DHT22;5983;49.966;8.052;2023-06-26T04:38:53;18.00;99.90
11848;DHT22;5983;49.966;8.052;2023-06-26T04:41:21;18.00;99.90
11848;DHT22;5983;49.966;8.052;2023-06-26T04:43:48;18.10;99.90
11848;DHT22;5983;49.966;8.052;2023-06-26T04:46:14;18.10;99.90
11848;DHT22;5983;49.966;8.052;2023-06-26T04:49:04;18.20;99.90
11848;DHT22;5983;49.966;8.052;2023-06-26T04:51:31;18.30;99.90
11848;DHT22;5983;49.966;8.052;2023-06-26T04:53:57;18.40;99.90
11848;DHT22;5983;49.966;8.052;2023-06-26T04:56:24;18.50;99.90
11848;DHT22;5983;49.966;8.052;2023-06-26T04:58:51;18.50;99.90
11848;DHT22;5983;49.966;8.052;2023-06-26T05:01:18;18.60;99.90
11848;DHT22;5983;49.966;8.052;2023-06-26T05:03:45;18.70;99.90
11848;DHT22;5983;49.966;8.052;2023-06-26T05:06:17;18.70;99.90
11848;DHT22;5983;49.966;8.052;2023-06-26T05:08:44;18.90;99.90
11848;DHT22;5983;49.966;8.052;2023-06-26T05:11:11;19.00;99.90
11848;DHT22;5983;49.966;8.052;2023-06-26T05:13:38;19.10;99.90
11848;DHT22;5983;49.966;8.052;2023-06-26T05:16:05;19.20;99.90
11848;DHT22;5983;49.966;8.052;2023-06-26T05:18:34;19.30;99.90
11848;DHT22;5983;49.966;8.052;2023-06-26T05:21:02;19.40;99.90
11848;DHT22;5983;49.966;8.052;2023-06-26T05:23:32;19.50;99.90
11848;DHT22;5983;49.966;8.052;2023-06-26T05:26:00;19.50;99.90
11848;DHT22;5983;49.966;8.052;2023-06-26T05:28:29;19.60;99.90
11848;DHT22;5983;49.966;8.052;2023-06-26T05:30:57;19.70;99.90
11848;DHT22;5983;49.966;8.052;2023-06-26T05:33:26;19.80;99.90
11848;DHT22;5983;49.966;8.052;2023-06-26T05:35:54;19.90;99.90
11848;DHT22;5983;49.966;8.052;2023-06-26T05:38:22;20.00;99.90
11848;DHT22;5983;49.966;8.052;2023-06-26T05:40:51;20.10;99.90
11848;DHT22;5983;49.966;8.052;2023-06-26T05:43:19;20.20;99.90
11848;DHT22;5983;49.966;8.052;2023-06-26T05:45:47;20.30;99.90
11848;DHT22;5983;49.966;8.052;2023-06-26T05:48:14;20.40;99.90
11848;DHT22;5983;49.966;8.052;2023-06-26T05:50:42;20.60;99.90
11848;DHT22;5983;49.966;8.052;2023-06-26T05:53:11;20.70;99.90
11848;DHT22;5983;49.966;8.052;2023-06-26T05:55:39;20.90;99.90
11848;DHT22;5983;49.966;8.052;2023-06-26T05:58:10;21.10;99.90
11848;DHT22;5983;49.966;8.052;2023-06-26T06:00:38;21.20;99.90
11848;DHT22;5983;49.966;8.052;2023-06-26T06:03:06;21.30;99.90
11848;DHT22;5983;49.966;8.052;2023-06-26T06:05:34;21.40;99.90
11848;DHT22;5983;49.966;8.052;2023-06-26T06:08:01;21.50;99.90
11848;DHT22;5983;49.966;8.052;2023-06-26T06:10:28;21.70;99.90
11848;DHT22;5983;49.966;8.052;2023-06-26T06:12:55;21.80;99.90
11848;DHT22;5983;49.966;8.052;2023-06-26T06:15:23;22.00;99.90
11848;DHT22;5983;49.966;8.052;2023-06-26T06:17:50;22.10;99.90
11848;DHT22;5983;49.966;8.052;2023-06-26T06:20:17;22.30;99.90
11848;DHT22;5983;49.966;8.052;2023-06-26T06:22:46;22.40;99.90
11848;DHT22;5983;49.966;8.052;2023-06-26T06:25:14;22.50;99.90
11848;DHT22;5983;49.966;8.052;2023-06-26T06:27:42;22.60;99.90
11848;DHT22;5983;49.966;8.052;2023-06-26T06:30:10;22.80;99.90
11848;DHT22;5983;49.966;8.052;2023-06-26T06:32:39;22.80;99.90
11848;DHT22;5983;49.966;8.052;2023-06-26T06:35:07;23.00;99.90
11848;DHT22;5983;49.966;8.052;2023-06-26T06:37:35;23.10;99.90
11848;DHT22;5983;49.966;8.052;2023-06-26T06:40:04;23.20;99.90
11848;DHT22;5983;49.966;8.052;2023-06-26T06:42:32;23.30;99.90
11848;DHT22;5983;49.966;8.052;2023-06-26T06:45:01;23.30;99.90
11848;DHT22;5983;49.966;8.052;2023-06-26T06:47:28;23.50;99.90
11848;DHT22;5983;49.966;8.052;2023-06-26T06:49:56;23.70;99.90
11848;DHT22;5983;49.966;8.052;2023-06-26T06:52:23;23.80;99.90
11848;DHT22;5983;49.966;8.052;2023-06-26T06:54:54;23.90;99.90
11848;DHT22;5983;49.966;8.052;2023-06-26T06:57:24;24.10;99.90
11848;DHT22;5983;49.966;8.052;2023-06-26T06:59:51;24.20;99.90
11848;DHT22;5983;49.966;8.052;2023-06-26T07:02:18;24.40;99.90
11848;DHT22;5983;49.966;8.052;2023-06-26T07:04:46;24.60;99.90
11848;DHT22;5983;49.966;8.052;2023-06-26T07:07:17;24.70;99.90
11848;DHT22;5983;49.966;8.052;2023-06-26T07:09:45;24.90;99.90
11848;DHT22;5983;49.966;8.052;2023-06-26T07:12:11;25.00;99.90
11848;DHT22;5983;49.966;8.052;2023-06-26T07:14:39;25.20;99.90
11848;DHT22;5983;49.966;8.052;2023-06-26T07:17:06;25.40;99.90
11848;DHT22;5983;49.966;8.052;2023-06-26T07:19:34;25.60;99.90
11848;DHT22;5983;49.966;8.052;2023-06-26T07:22:00;25.80;99.90
11848;DHT22;5983;49.966;8.052;2023-06-26T07:24:29;25.90;99.90
11848;DHT22;5983;49.966;8.052;2023-06-26T07:26:55;26.10;99.90
11848;DHT22;5983;49.966;8.052;2023-06-26T07:29:22;26.20;99.90
11848;DHT22;5983;49.966;8.052;2023-06-26T07:31:49;26.40;99.90
11848;DHT22;5983;49.966;8.052;2023-06-26T07:34:16;26.50;99.90
11848;DHT22;5983;49.966;8.052;2023-06-26T07:36:43;26.50;99.90
11848;DHT22;5983;49.966;8.052;2023-06-26T07:39:10;26.50;99.90
11848;DHT22;5983;49.966;8.052;2023-06-26T07:41:38;26.60;99.90
11848;DHT22;5983;49.966;8.052;2023-06-26T07:44:05;26.60;99.90
11848;DHT22;5983;49.966;8.052;2023-06-26T07:46:32;26.50;99.90
11848;DHT22;5983;49.966;8.052;2023-06-26T07:48:59;26.50;99.90
11848;DHT22;5983;49.966;8.052;2023-06-26T07:51:25;26.60;99.90
11848;DHT22;5983;49.966;8.052;2023-06-26T07:53:52;26.80;99.90
11848;DHT22;5983;49.966;8.052;2023-06-26T07:56:19;27.00;99.90
11848;DHT22;5983;49.966;8.052;2023-06-26T07:58:48;27.20;99.90
11848;DHT22;5983;49.966;8.052;2023-06-26T08:01:15;27.40;99.90
11848;DHT22;5983;49.966;8.052;2023-06-26T08:03:41;27.60;99.90
11848;DHT22;5983;49.966;8.052;2023-06-26T08:06:08;27.80;99.90
11848;DHT22;5983;49.966;8.052;2023-06-26T08:08:35;28.00;99.90
11848;DHT22;5983;49.966;8.052;2023-06-26T08:11:02;28.20;99.90
11848;DHT22;5983;49.966;8.052;2023-06-26T08:13:29;28.40;99.90
11848;DHT22;5983;49.966;8.052;2023-06-26T08:15:58;28.60;99.90
11848;DHT22;5983;49.966;8.052;2023-06-26T08:18:24;28.90;99.90
11848;DHT22;5983;49.966;8.052;2023-06-26T08:20:51;29.00;99.90
11848;DHT22;5983;49.966;8.052;2023-06-26T08:23:18;29.00;99.90
11848;DHT22;5983;49.966;8.052;2023-06-26T08:25:45;29.10;99.90
11848;DHT22;5983;49.966;8.052;2023-06-26T08:28:12;29.30;99.90
11848;DHT22;5983;49.966;8.052;2023-06-26T08:30:39;29.40;99.90
11848;DHT22;5983;49.966;8.052;2023-06-26T08:33:07;29.40;99.90
11848;DHT22;5983;49.966;8.052;2023-06-26T08:35:37;29.60;99.90
11848;DHT22;5983;49.966;8.052;2023-06-26T08:38:05;29.70;99.90
11848;DHT22;5983;49.966;8.052;2023-06-26T08:40:32;29.70;99.90
11848;DHT22;5983;49.966;8.052;2023-06-26T08:42:59;29.70;99.70
11848;DHT22;5983;49.966;8.052;2023-06-26T08:45:26;29.80;99.30
11848;DHT22;5983;49.966;8.052;2023-06-26T08:47:55;29.90;99.20
11848;DHT22;5983;49.966;8.052;2023-06-26T08:50:30;29.90;98.60
11848;DHT22;5983;49.966;8.052;2023-06-26T08:53:04;30.00;97.90
11848;DHT22;5983;49.966;8.052;2023-06-26T08:55:41;30.00;97.80
11848;DHT22;5983;49.966;8.052;2023-06-26T08:58:10;30.10;97.70
11848;DHT22;5983;49.966;8.052;2023-06-26T09:00:38;30.20;97.50
11848;DHT22;5983;49.966;8.052;2023-06-26T09:03:05;30.40;97.30
11848;DHT22;5983;49.966;8.052;2023-06-26T09:05:36;30.50;97.10
11848;DHT22;5983;49.966;8.052;2023-06-26T09:08:03;30.70;96.40
11848;DHT22;5983;49.966;8.052;2023-06-26T09:10:31;31.00;96.10
11848;DHT22;5983;49.966;8.052;2023-06-26T09:12:58;31.20;95.10
11848;DHT22;5983;49.966;8.052;2023-06-26T09:15:26;31.20;94.80
11848;DHT22;5983;49.966;8.052;2023-06-26T09:17:56;31.40;94.60
11848;DHT22;5983;49.966;8.052;2023-06-26T09:20:27;31.50;94.40
11848;DHT22;5983;49.966;8.052;2023-06-26T09:22:57;31.60;93.30
11848;DHT22;5983;49.966;8.052;2023-06-26T09:25:24;31.40;92.80
11848;DHT22;5983;49.966;8.052;2023-06-26T09:27:51;31.20;92.90
11848;DHT22;5983;49.966;8.052;2023-06-26T09:30:19;31.00;93.00
11848;DHT22;5983;49.966;8.052;2023-06-26T09:32:46;31.00;93.20
11848;DHT22;5983;49.966;8.052;2023-06-26T09:35:14;30.90;93.20
11848;DHT22;5983;49.966;8.052;2023-06-26T09:37:41;31.10;93.40
11848;DHT22;5983;49.966;8.052;2023-06-26T09:40:11;31.20;93.30
11848;DHT22;5983;49.966;8.052;2023-06-26T09:42:38;31.30;93.30
11848;DHT22;5983;49.966;8.052;2023-06-26T09:45:05;31.50;92.70
11848;DHT22;5983;49.966;8.052;2023-06-26T09:47:34;31.50;92.20
11848;DHT22;5983;49.966;8.052;2023-06-26T09:50:03;31.60;91.50
11848;DHT22;5983;49.966;8.052;2023-06-26T09:52:31;31.70;91.60
11848;DHT22;5983;49.966;8.052;2023-06-26T09:55:11;31.80;91.00
11848;DHT22;5983;49.966;8.052;2023-06-26T09:57:39;31.90;90.70
11848;DHT22;5983;49.966;8.052;2023-06-26T10:00:08;31.90;88.80
11848;DHT22;5983;49.966;8.052;2023-06-26T10:02:37;31.90;88.50
11848;DHT22;5983;49.966;8.052;2023-06-26T10:05:05;32.00;89.10
11848;DHT22;5983;49.966;8.052;2023-06-26T10:07:32;32.00;88.50
11848;DHT22;5983;49.966;8.052;2023-06-26T10:10:02;32.00;88.40
11848;DHT22;5983;49.966;8.052;2023-06-26T10:12:32;31.90;88.80
11848;DHT22;5983;49.966;8.052;2023-06-26T10:14:59;32.00;88.80
11848;DHT22;5983;49.966;8.052;2023-06-26T10:20:11;32.20;86.90
11848;DHT22;5983;49.966;8.052;2023-06-26T10:22:44;32.20;86.70
11848;DHT22;5983;49.966;8.052;2023-06-26T10:25:17;32.30;86.60
11848;DHT22;5983;49.966;8.052;2023-06-26T10:27:50;32.40;84.60
11848;DHT22;5983;49.966;8.052;2023-06-26T10:30:24;32.40;84.00
11848;DHT22;5983;49.966;8.052;2023-06-26T10:32:56;32.20;83.00
11848;DHT22;5983;49.966;8.052;2023-06-26T10:35:28;32.10;83.30
11848;DHT22;5983;49.966;8.052;2023-06-26T10:38:01;32.00;81.50
11848;DHT22;5983;49.966;8.052;2023-06-26T10:40:40;31.90;82.80
11848;DHT22;5983;49.966;8.052;2023-06-26T10:43:11;31.80;82.70
11848;DHT22;5983;49.966;8.052;2023-06-26T10:45:44;31.80;82.70
11848;DHT22;5983;49.966;8.052;2023-06-26T10:48:17;32.00;82.70
11848;DHT22;5983;49.966;8.052;2023-06-26T10:50:47;32.10;82.20
11848;DHT22;5983;49.966;8.052;2023-06-26T10:53:23;32.00;81.70
11848;DHT22;5983;49.966;8.052;2023-06-26T10:55:55;31.80;82.20
11848;DHT22;5983;49.966;8.052;2023-06-26T10:58:41;31.70;82.20
11848;DHT22;5983;49.966;8.052;2023-06-26T11:01:20;31.80;82.00
11848;DHT22;5983;49.966;8.052;2023-06-26T11:03:59;31.90;81.20
11848;DHT22;5983;49.966;8.052;2023-06-26T11:06:31;32.00;80.60
11848;DHT22;5983;49.966;8.052;2023-06-26T11:09:01;32.00;80.20
11848;DHT22;5983;49.966;8.052;2023-06-26T11:11:58;31.90;80.00
11848;DHT22;5983;49.966;8.052;2023-06-26T11:14:32;32.10;80.60
11848;DHT22;5983;49.966;8.052;2023-06-26T11:17:02;32.30;80.80
11848;DHT22;5983;49.966;8.052;2023-06-26T11:19:30;32.40;80.00
11848;DHT22;5983;49.966;8.052;2023-06-26T11:22:04;32.40;77.40
11848;DHT22;5983;49.966;8.052;2023-06-26T11:24:33;32.40;76.60
11848;DHT22;5983;49.966;8.052;2023-06-26T11:27:01;32.30;75.70
11848;DHT22;5983;49.966;8.052;2023-06-26T11:29:33;32.20;74.90
11848;DHT22;5983;49.966;8.052;2023-06-26T11:32:02;32.30;74.90
11848;DHT22;5983;49.966;8.052;2023-06-26T11:34:35;32.40;74.30
11848;DHT22;5983;49.966;8.052;2023-06-26T11:37:04;32.50;74.20
11848;DHT22;5983;49.966;8.052;2023-06-26T11:39:39;32.60;73.80
11848;DHT22;5983;49.966;8.052;2023-06-26T11:42:06;32.80;73.00
11848;DHT22;5983;49.966;8.052;2023-06-26T11:44:51;33.00;71.70
11848;DHT22;5983;49.966;8.052;2023-06-26T11:47:30;33.10;71.00
11848;DHT22;5983;49.966;8.052;2023-06-26T11:49:57;33.10;70.00
11848;DHT22;5983;49.966;8.052;2023-06-26T11:52:27;33.20;70.30
11848;DHT22;5983;49.966;8.052;2023-06-26T11:55:01;33.20;68.30
11848;DHT22;5983;49.966;8.052;2023-06-26T11:57:42;33.20;67.10
11848;DHT22;5983;49.966;8.052;2023-06-26T12:00:26;33.20;65.70
11848;DHT22;5983;49.966;8.052;2023-06-26T12:03:15;33.20;66.40
11848;DHT22;5983;49.966;8.052;2023-06-26T12:05:56;33.20;67.20
11848;DHT22;5983;49.966;8.052;2023-06-26T12:08:36;33.20;67.10
11848;DHT22;5983;49.966;8.052;2023-06-26T12:11:04;33.20;65.90
11848;DHT22;5983;49.966;8.052;2023-06-26T12:13:32;33.10;64.90
11848;DHT22;5983;49.966;8.052;2023-06-26T12:16:04;33.10;65.10
11848;DHT22;5983;49.966;8.052;2023-06-26T12:18:39;33.00;65.60
11848;DHT22;5983;49.966;8.052;2023-06-26T12:21:45;33.10;66.70
11848;DHT22;5983;49.966;8.052;2023-06-26T12:24:56;33.10;65.40
11848;DHT22;5983;49.966;8.052;2023-06-26T12:27:45;33.10;65.20
11848;DHT22;5983;49.966;8.052;2023-06-26T12:30:34;33.00;65.20
11848;DHT22;5983;49.966;8.052;2023-06-26T12:33:13;33.00;65.00
11848;DHT22;5983;49.966;8.052;2023-06-26T12:35:43;33.00;64.40
11848;DHT22;5983;49.966;8.052;2023-06-26T12:38:33;33.10;64.10
11848;DHT22;5983;49.966;8.052;2023-06-26T12:44:43;33.00;62.50
11848;DHT22;5983;49.966;8.052;2023-06-26T12:50:57;33.10;63.20
11848;DHT22;5983;49.966;8.052;2023-06-26T12:53:46;33.10;63.70
11848;DHT22;5983;49.966;8.052;2023-06-26T12:56:43;33.00;61.80
11848;DHT22;5983;49.966;8.052;2023-06-26T12:59:36;33.00;63.10
11848;DHT22;5983;49.966;8.052;2023-06-26T13:13:10;32.70;59.60
11848;DHT22;5983;49.966;8.052;2023-06-26T13:16:00;32.50;59.20
11848;DHT22;5983;49.966;8.052;2023-06-26T13:19:21;32.50;60.70
11848;DHT22;5983;49.966;8.052;2023-06-26T13:22:05;32.60;60.80
11848;DHT22;5983;49.966;8.052;2023-06-26T13:25:08;32.70;61.50
11848;DHT22;5983;49.966;8.052;2023-06-26T13:27:36;32.70;60.30
11848;DHT22;5983;49.966;8.052;2023-06-26T13:30:06;32.70;60.70
11848;DHT22;5983;49.966;8.052;2023-06-26T13:32:36;32.80;60.60
11848;DHT22;5983;49.966;8.052;2023-06-26T13:35:04;32.80;60.20
11848;DHT22;5983;49.966;8.052;2023-06-26T13:37:31;32.80;59.80
11848;DHT22;5983;49.966;8.052;2023-06-26T13:39:59;32.70;59.00
11848;DHT22;5983;49.966;8.052;2023-06-26T13:42:28;32.60;57.80
11848;DHT22;5983;49.966;8.052;2023-06-26T13:44:55;32.70;57.50
11848;DHT22;5983;49.966;8.052;2023-06-26T13:47:24;32.70;56.90
11848;DHT22;5983;49.966;8.052;2023-06-26T13:49:52;32.80;56.30
11848;DHT22;5983;49.966;8.052;2023-06-26T13:52:20;32.80;57.20
11848;DHT22;5983;49.966;8.052;2023-06-26T13:54:47;32.70;56.90
11848;DHT22;5983;49.966;8.052;2023-06-26T13:57:14;32.60;57.70
11848;DHT22;5983;49.966;8.052;2023-06-26T13:59:41;32.50;58.50
11848;DHT22;5983;49.966;8.052;2023-06-26T14:02:17;32.50;59.10
11848;DHT22;5983;49.966;8.052;2023-06-26T14:04:48;32.40;59.00
11848;DHT22;5983;49.966;8.052;2023-06-26T14:07:15;32.20;59.70
11848;DHT22;5983;49.966;8.052;2023-06-26T14:09:42;32.10;58.40
11848;DHT22;5983;49.966;8.052;2023-06-26T14:12:09;32.00;59.00
11848;DHT22;5983;49.966;8.052;2023-06-26T14:14:38;32.00;58.00
11848;DHT22;5983;49.966;8.052;2023-06-26T14:17:07;32.00;57.70
11848;DHT22;5983;49.966;8.052;2023-06-26T14:19:41;32.00;57.20
11848;DHT22;5983;49.966;8.052;2023-06-26T14:22:10;32.10;56.90
11848;DHT22;5983;49.966;8.052;2023-06-26T14:24:37;32.00;55.90
11848;DHT22;5983;49.966;8.052;2023-06-26T14:27:06;31.90;55.30
11848;DHT22;5983;49.966;8.052;2023-06-26T14:29:33;31.70;54.30
11848;DHT22;5983;49.966;8.052;2023-06-26T14:32:00;31.60;54.20
11848;DHT22;5983;49.966;8.052;2023-06-26T14:34:27;31.50;52.60
11848;DHT22;5983;49.966;8.052;2023-06-26T14:36:55;31.50;52.50
11848;DHT22;5983;49.966;8.052;2023-06-26T14:39:34;31.50;52.90
11848;DHT22;5983;49.966;8.052;2023-06-26T14:42:21;31.50;55.10
11848;DHT22;5983;49.966;8.052;2023-06-26T14:44:50;31.50;56.00
11848;DHT22;5983;49.966;8.052;2023-06-26T14:47:27;31.40;56.00
11848;DHT22;5983;49.966;8.052;2023-06-26T14:49:56;31.30;56.60
11848;DHT22;5983;49.966;8.052;2023-06-26T14:52:23;31.00;55.90
11848;DHT22;5983;49.966;8.052;2023-06-26T14:54:52;30.70;57.20
11848;DHT22;5983;49.966;8.052;2023-06-26T14:57:19;30.50;58.40
11848;DHT22;5983;49.966;8.052;2023-06-26T14:59:46;30.50;59.40
11848;DHT22;5983;49.966;8.052;2023-06-26T15:02:13;30.50;60.00
11848;DHT22;5983;49.966;8.052;2023-06-26T15:04:40;30.40;59.90
11848;DHT22;5983;49.966;8.052;2023-06-26T15:07:07;30.40;60.10
11848;DHT22;5983;49.966;8.052;2023-06-26T15:09:34;30.20;59.80
11848;DHT22;5983;49.966;8.052;2023-06-26T15:12:06;30.10;60.00
11848;DHT22;5983;49.966;8.052;2023-06-26T15:14:34;30.00;60.10
11848;DHT22;5983;49.966;8.052;2023-06-26T15:17:01;29.80;60.40
11848;DHT22;5983;49.966;8.052;2023-06-26T15:19:29;29.70;60.30
11848;DHT22;5983;49.966;8.052;2023-06-26T15:25:50;29.60;59.80
11848;DHT22;5983;49.966;8.052;2023-06-26T15:28:19;29.40;60.70
11848;DHT22;5983;49.966;8.052;2023-06-26T15:30:46;29.40;60.40
11848;DHT22;5983;49.966;8.052;2023-06-26T15:33:15;29.40;60.40
11848;DHT22;5983;49.966;8.052;2023-06-26T15:36:04;29.40;60.80
11848;DHT22;5983;49.966;8.052;2023-06-26T15:46:13;29.10;62.10
11848;DHT22;5983;49.966;8.052;2023-06-26T15:48:42;29.10;61.60
11848;DHT22;5983;49.966;8.052;2023-06-26T15:51:36;29.10;61.30
11848;DHT22;5983;49.966;8.052;2023-06-26T15:54:44;29.00;60.60
11848;DHT22;5983;49.966;8.052;2023-06-26T15:57:25;28.90;61.30
11848;DHT22;5983;49.966;8.052;2023-06-26T16:00:12;28.80;62.10
11848;DHT22;5983;49.966;8.052;2023-06-26T16:13:52;28.50;62.70
11848;DHT22;5983;49.966;8.052;2023-06-26T16:16:20;28.30;62.60
11848;DHT22;5983;49.966;8.052;2023-06-26T16:18:47;28.30;62.90
11848;DHT22;5983;49.966;8.052;2023-06-26T16:21:14;28.20;64.60
11848;DHT22;5983;49.966;8.052;2023-06-26T16:23:41;28.00;63.70
11848;DHT22;5983;49.966;8.052;2023-06-26T16:26:08;27.90;63.80
11848;DHT22;5983;49.966;8.052;2023-06-26T16:28:35;27.80;64.50
11848;DHT22;5983;49.966;8.052;2023-06-26T16:31:03;27.70;64.20
11848;DHT22;5983;49.966;8.052;2023-06-26T16:33:30;27.70;64.80
11848;DHT22;5983;49.966;8.052;2023-06-26T16:35:57;27.60;64.70
11848;DHT22;5983;49.966;8.052;2023-06-26T16:38:24;27.60;64.70
11848;DHT22;5983;49.966;8.052;2023-06-26T16:40:51;27.60;65.30
11848;DHT22;5983;49.966;8.052;2023-06-26T16:43:18;27.60;64.70
11848;DHT22;5983;49.966;8.052;2023-06-26T16:45:48;27.50;64.90
11848;DHT22;5983;49.966;8.052;2023-06-26T16:48:18;27.40;65.30
11848;DHT22;5983;49.966;8.052;2023-06-26T16:50:45;27.40;66.10